sensor_id;sensor_type;location;lat;lon;timestamp;P1;durP1;ratioP1;P2;durP2;ratioP2
17141;SDS011;32805;53.556;9.944;2023-02-05T00:01:40;4.85;;;2.55;;
17141;SDS011;32805;53.556;9.944;2023-02-05T00:04:08;3.55;;;2.63;;
17141;SDS011;32805;53.556;9.944;2023-02-05T00:06:36;3.95;;;2.83;;
17141;SDS011;32805;53.556;9.944;2023-02-05T00:09:05;4.53;;;2.85;;
17141;SDS011;32805;53.556;9.944;2023-02-05T00:11:33;4.95;;;3.20;;
17141;SDS011;32805;53.556;9.944;2023-02-05T00:14:00;3.42;;;2.45;;
17141;SDS011;32805;53.556;9.944;2023-02-05T00:16:28;4.40;;;3.33;;
17141;SDS011;32805;53.556;9.944;2023-02-05T00:18:56;3.50;;;2.70;;
17141;SDS011;32805;53.556;9.944;2023-02-05T00:21:23;3.63;;;3.15;;
17141;SDS011;32805;53.556;9.944;2023-02-05T00:23:51;4.63;;;2.90;;
17141;SDS011;32805;53.556;9.944;2023-02-05T00:26:20;3.33;;;3.00;;
17141;SDS011;32805;53.556;9.944;2023-02-05T00:28:48;5.35;;;3.00;;
17141;SDS011;32805;53.556;9.944;2023-02-05T00:31:16;3.35;;;2.70;;
17141;SDS011;32805;53.556;9.944;2023-02-05T00:33:45;4.53;;;3.22;;
17141;SDS011;32805;53.556;9.944;2023-02-05T00:36:13;8.02;;;3.50;;
17141;SDS011;32805;53.556;9.944;2023-02-05T00:38:42;4.30;;;2.92;;
17141;SDS011;32805;53.556;9.944;2023-02-05T00:41:10;4.38;;;2.95;;
17141;SDS011;32805;53.556;9.944;2023-02-05T00:43:40;3.67;;;2.78;;
17141;SDS011;32805;53.556;9.944;2023-02-05T00:46:09;3.78;;;2.72;;
17141;SDS011;32805;53.556;9.944;2023-02-05T00:48:38;5.03;;;2.83;;
17141;SDS011;32805;53.556;9.944;2023-02-05T00:51:07;3.78;;;2.70;;
17141;SDS011;32805;53.556;9.944;2023-02-05T00:53:35;4.30;;;2.60;;
17141;SDS011;32805;53.556;9.944;2023-02-05T00:56:03;2.83;;;2.33;;
17141;SDS011;32805;53.556;9.944;2023-02-05T00:58:32;3.88;;;2.78;;
17141;SDS011;32805;53.556;9.944;2023-02-05T01:01:01;4.03;;;2.50;;
17141;SDS011;32805;53.556;9.944;2023-02-05T01:03:30;3.53;;;2.50;;
17141;SDS011;32805;53.556;9.944;2023-02-05T01:05:58;4.65;;;2.40;;
17141;SDS011;32805;53.556;9.944;2023-02-05T01:08:28;5.10;;;2.83;;
17141;SDS011;32805;53.556;9.944;2023-02-05T01:10:56;4.18;;;2.22;;
17141;SDS011;32805;53.556;9.944;2023-02-05T01:13:24;3.42;;;2.53;;
17141;SDS011;32805;53.556;9.944;2023-02-05T01:15:52;3.25;;;2.40;;
17141;SDS011;32805;53.556;9.944;2023-02-05T01:18:21;2.97;;;2.58;;
17141;SDS011;32805;53.556;9.944;2023-02-05T01:20:49;3.55;;;2.95;;
17141;SDS011;32805;53.556;9.944;2023-02-05T01:23:17;3.90;;;2.42;;
17141;SDS011;32805;53.556;9.944;2023-02-05T01:25:45;3.53;;;2.60;;
17141;SDS011;32805;53.556;9.944;2023-02-05T01:28:13;5.40;;;2.38;;
17141;SDS011;32805;53.556;9.944;2023-02-05T01:30:41;3.97;;;2.40;;
17141;SDS011;32805;53.556;9.944;2023-02-05T01:33:08;4.88;;;2.55;;
17141;SDS011;32805;53.556;9.944;2023-02-05T01:35:37;2.65;;;2.30;;
17141;SDS011;32805;53.556;9.944;2023-02-05T01:38:06;3.15;;;2.47;;
17141;SDS011;32805;53.556;9.944;2023-02-05T01:40:34;4.13;;;2.63;;
17141;SDS011;32805;53.556;9.944;2023-02-05T01:43:01;3.17;;;2.30;;
17141;SDS011;32805;53.556;9.944;2023-02-05T01:48:33;3.28;;;2.53;;
17141;SDS011;32805;53.556;9.944;2023-02-05T01:51:05;3.10;;;2.80;;
17141;SDS011;32805;53.556;9.944;2023-02-05T01:53:35;3.90;;;2.40;;
17141;SDS011;32805;53.556;9.944;2023-02-05T01:56:05;4.25;;;2.40;;
17141;SDS011;32805;53.556;9.944;2023-02-05T01:58:38;3.50;;;2.33;;
17141;SDS011;32805;53.556;9.944;2023-02-05T02:01:11;5.53;;;2.85;;
17141;SDS011;32805;53.556;9.944;2023-02-05T02:03:38;4.07;;;2.40;;
17141;SDS011;32805;53.556;9.944;2023-02-05T02:06:09;3.35;;;2.38;;
17141;SDS011;32805;53.556;9.944;2023-02-05T02:08:37;3.03;;;2.47;;
17141;SDS011;32805;53.556;9.944;2023-02-05T02:11:05;2.78;;;2.25;;
17141;SDS011;32805;53.556;9.944;2023-02-05T02:13:36;3.58;;;2.15;;
17141;SDS011;32805;53.556;9.944;2023-02-05T02:16:06;3.20;;;2.90;;
17141;SDS011;32805;53.556;9.944;2023-02-05T02:18:35;3.33;;;2.05;;
17141;SDS011;32805;53.556;9.944;2023-02-05T02:24:34;3.53;;;2.10;;
17141;SDS011;32805;53.556;9.944;2023-02-05T02:27:35;3.38;;;2.40;;
17141;SDS011;32805;53.556;9.944;2023-02-05T02:30:07;3.28;;;2.50;;
17141;SDS011;32805;53.556;9.944;2023-02-05T02:32:39;4.43;;;2.65;;
17141;SDS011;32805;53.556;9.944;2023-02-05T02:35:10;2.88;;;2.58;;
17141;SDS011;32805;53.556;9.944;2023-02-05T02:37:44;3.75;;;2.47;;
17141;SDS011;32805;53.556;9.944;2023-02-05T02:40:17;2.92;;;2.15;;
17141;SDS011;32805;53.556;9.944;2023-02-05T02:42:50;5.82;;;2.80;;
17141;SDS011;32805;53.556;9.944;2023-02-05T02:45:21;3.38;;;2.17;;
17141;SDS011;32805;53.556;9.944;2023-02-05T02:47:54;3.13;;;2.50;;
17141;SDS011;32805;53.556;9.944;2023-02-05T02:50:27;4.10;;;2.17;;
17141;SDS011;32805;53.556;9.944;2023-02-05T02:52:58;3.10;;;2.22;;
17141;SDS011;32805;53.556;9.944;2023-02-05T02:55:30;3.60;;;2.20;;
17141;SDS011;32805;53.556;9.944;2023-02-05T02:58:03;3.33;;;2.50;;
17141;SDS011;32805;53.556;9.944;2023-02-05T03:00:34;2.78;;;2.20;;
17141;SDS011;32805;53.556;9.944;2023-02-05T03:03:05;3.90;;;2.80;;
17141;SDS011;32805;53.556;9.944;2023-02-05T03:05:35;4.47;;;2.35;;
17141;SDS011;32805;53.556;9.944;2023-02-05T03:08:06;2.55;;;2.33;;
17141;SDS011;32805;53.556;9.944;2023-02-05T03:10:40;3.25;;;2.30;;
17141;SDS011;32805;53.556;9.944;2023-02-05T03:13:14;3.42;;;2.17;;
17141;SDS011;32805;53.556;9.944;2023-02-05T03:15:47;3.60;;;2.55;;
17141;SDS011;32805;53.556;9.944;2023-02-05T03:18:15;5.15;;;2.88;;
17141;SDS011;32805;53.556;9.944;2023-02-05T03:20:47;3.40;;;2.65;;
17141;SDS011;32805;53.556;9.944;2023-02-05T03:23:18;2.75;;;2.40;;
17141;SDS011;32805;53.556;9.944;2023-02-05T03:25:46;2.78;;;2.22;;
17141;SDS011;32805;53.556;9.944;2023-02-05T03:28:20;3.05;;;2.42;;
17141;SDS011;32805;53.556;9.944;2023-02-05T03:30:51;3.10;;;2.55;;
17141;SDS011;32805;53.556;9.944;2023-02-05T03:33:29;4.53;;;2.70;;
17141;SDS011;32805;53.556;9.944;2023-02-05T03:36:08;4.90;;;3.10;;
17141;SDS011;32805;53.556;9.944;2023-02-05T03:38:49;3.58;;;2.55;;
17141;SDS011;32805;53.556;9.944;2023-02-05T03:41:38;3.05;;;2.58;;
17141;SDS011;32805;53.556;9.944;2023-02-05T03:47:29;4.63;;;2.30;;
17141;SDS011;32805;53.556;9.944;2023-02-05T03:50:07;2.60;;;2.17;;
17141;SDS011;32805;53.556;9.944;2023-02-05T03:52:40;3.53;;;2.53;;
17141;SDS011;32805;53.556;9.944;2023-02-05T03:55:12;3.60;;;2.35;;
17141;SDS011;32805;53.556;9.944;2023-02-05T03:57:46;6.10;;;2.50;;
17141;SDS011;32805;53.556;9.944;2023-02-05T04:00:19;6.53;;;3.63;;
17141;SDS011;32805;53.556;9.944;2023-02-05T04:02:51;2.70;;;2.33;;
17141;SDS011;32805;53.556;9.944;2023-02-05T04:05:22;4.47;;;2.55;;
17141;SDS011;32805;53.556;9.944;2023-02-05T04:07:53;2.35;;;1.85;;
17141;SDS011;32805;53.556;9.944;2023-02-05T04:10:25;4.20;;;2.72;;
17141;SDS011;32805;53.556;9.944;2023-02-05T04:12:53;2.50;;;2.20;;
17141;SDS011;32805;53.556;9.944;2023-02-05T04:15:22;3.53;;;2.40;;
17141;SDS011;32805;53.556;9.944;2023-02-05T04:17:53;2.47;;;2.28;;
17141;SDS011;32805;53.556;9.944;2023-02-05T04:20:24;3.53;;;2.40;;
17141;SDS011;32805;53.556;9.944;2023-02-05T04:22:52;3.08;;;2.50;;
17141;SDS011;32805;53.556;9.944;2023-02-05T04:25:21;3.03;;;2.35;;
17141;SDS011;32805;53.556;9.944;2023-02-05T04:27:52;3.88;;;2.45;;
17141;SDS011;32805;53.556;9.944;2023-02-05T04:30:20;2.67;;;2.38;;
17141;SDS011;32805;53.556;9.944;2023-02-05T04:32:49;3.45;;;2.40;;
17141;SDS011;32805;53.556;9.944;2023-02-05T04:35:17;2.75;;;2.20;;
17141;SDS011;32805;53.556;9.944;2023-02-05T04:37:46;3.58;;;2.70;;
17141;SDS011;32805;53.556;9.944;2023-02-05T04:40:14;2.85;;;2.65;;
17141;SDS011;32805;53.556;9.944;2023-02-05T04:42:42;4.10;;;3.17;;
17141;SDS011;32805;53.556;9.944;2023-02-05T04:45:10;5.20;;;2.47;;
17141;SDS011;32805;53.556;9.944;2023-02-05T04:47:38;2.63;;;2.20;;
17141;SDS011;32805;53.556;9.944;2023-02-05T04:50:07;3.50;;;2.40;;
17141;SDS011;32805;53.556;9.944;2023-02-05T04:52:35;2.63;;;2.13;;
17141;SDS011;32805;53.556;9.944;2023-02-05T04:55:04;2.05;;;1.85;;
17141;SDS011;32805;53.556;9.944;2023-02-05T04:57:32;2.38;;;2.17;;
17141;SDS011;32805;53.556;9.944;2023-02-05T05:00:00;3.67;;;2.28;;
17141;SDS011;32805;53.556;9.944;2023-02-05T05:02:28;2.58;;;1.90;;
17141;SDS011;32805;53.556;9.944;2023-02-05T05:04:56;5.05;;;1.83;;
17141;SDS011;32805;53.556;9.944;2023-02-05T05:07:25;2.78;;;2.22;;
17141;SDS011;32805;53.556;9.944;2023-02-05T05:09:52;2.42;;;2.20;;
17141;SDS011;32805;53.556;9.944;2023-02-05T05:12:20;4.20;;;2.75;;
17141;SDS011;32805;53.556;9.944;2023-02-05T05:14:48;5.18;;;3.03;;
17141;SDS011;32805;53.556;9.944;2023-02-05T05:17:16;2.75;;;2.20;;
17141;SDS011;32805;53.556;9.944;2023-02-05T05:19:43;2.33;;;2.10;;
17141;SDS011;32805;53.556;9.944;2023-02-05T05:22:11;4.38;;;2.22;;
17141;SDS011;32805;53.556;9.944;2023-02-05T05:24:40;3.38;;;2.63;;
17141;SDS011;32805;53.556;9.944;2023-02-05T05:27:08;2.45;;;2.22;;
17141;SDS011;32805;53.556;9.944;2023-02-05T05:29:36;2.40;;;2.20;;
17141;SDS011;32805;53.556;9.944;2023-02-05T05:32:04;2.72;;;2.10;;
17141;SDS011;32805;53.556;9.944;2023-02-05T05:34:32;4.55;;;2.50;;
17141;SDS011;32805;53.556;9.944;2023-02-05T05:37:00;2.55;;;2.35;;
17141;SDS011;32805;53.556;9.944;2023-02-05T05:39:28;4.57;;;2.78;;
17141;SDS011;32805;53.556;9.944;2023-02-05T05:42:14;3.38;;;2.50;;
17141;SDS011;32805;53.556;9.944;2023-02-05T05:45:14;3.60;;;2.40;;
17141;SDS011;32805;53.556;9.944;2023-02-05T05:47:42;3.42;;;2.45;;
17141;SDS011;32805;53.556;9.944;2023-02-05T05:50:10;4.35;;;2.53;;
17141;SDS011;32805;53.556;9.944;2023-02-05T05:52:38;3.28;;;2.33;;
17141;SDS011;32805;53.556;9.944;2023-02-05T05:55:06;3.92;;;2.63;;
17141;SDS011;32805;53.556;9.944;2023-02-05T05:57:35;3.13;;;2.83;;
17141;SDS011;32805;53.556;9.944;2023-02-05T06:00:03;3.75;;;2.15;;
17141;SDS011;32805;53.556;9.944;2023-02-05T06:02:38;4.20;;;2.90;;
17141;SDS011;32805;53.556;9.944;2023-02-05T06:05:06;3.58;;;3.22;;
17141;SDS011;32805;53.556;9.944;2023-02-05T06:07:34;3.78;;;2.35;;
17141;SDS011;32805;53.556;9.944;2023-02-05T06:10:02;4.68;;;2.58;;
17141;SDS011;32805;53.556;9.944;2023-02-05T06:12:30;3.65;;;2.50;;
17141;SDS011;32805;53.556;9.944;2023-02-05T06:14:59;5.95;;;2.67;;
17141;SDS011;32805;53.556;9.944;2023-02-05T06:17:27;3.83;;;2.50;;
17141;SDS011;32805;53.556;9.944;2023-02-05T06:19:55;3.35;;;2.47;;
17141;SDS011;32805;53.556;9.944;2023-02-05T06:22:23;3.05;;;2.70;;
17141;SDS011;32805;53.556;9.944;2023-02-05T06:24:51;3.97;;;2.85;;
17141;SDS011;32805;53.556;9.944;2023-02-05T06:27:19;2.58;;;2.03;;
17141;SDS011;32805;53.556;9.944;2023-02-05T06:29:47;3.25;;;2.78;;
17141;SDS011;32805;53.556;9.944;2023-02-05T06:32:16;5.65;;;2.88;;
17141;SDS011;32805;53.556;9.944;2023-02-05T06:34:44;3.55;;;2.42;;
17141;SDS011;32805;53.556;9.944;2023-02-05T06:37:12;3.67;;;2.70;;
17141;SDS011;32805;53.556;9.944;2023-02-05T06:39:40;3.35;;;2.58;;
17141;SDS011;32805;53.556;9.944;2023-02-05T06:42:08;2.63;;;2.40;;
17141;SDS011;32805;53.556;9.944;2023-02-05T06:44:35;2.42;;;2.22;;
17141;SDS011;32805;53.556;9.944;2023-02-05T06:47:03;4.78;;;3.05;;
17141;SDS011;32805;53.556;9.944;2023-02-05T06:49:32;3.70;;;2.75;;
17141;SDS011;32805;53.556;9.944;2023-02-05T06:52:00;3.55;;;2.67;;
17141;SDS011;32805;53.556;9.944;2023-02-05T06:54:27;3.60;;;3.17;;
17141;SDS011;32805;53.556;9.944;2023-02-05T06:56:55;3.58;;;2.85;;
17141;SDS011;32805;53.556;9.944;2023-02-05T06:59:23;3.85;;;3.15;;
17141;SDS011;32805;53.556;9.944;2023-02-05T07:01:51;3.50;;;2.67;;
17141;SDS011;32805;53.556;9.944;2023-02-05T07:04:18;4.75;;;3.00;;
17141;SDS011;32805;53.556;9.944;2023-02-05T07:06:47;5.68;;;2.80;;
17141;SDS011;32805;53.556;9.944;2023-02-05T07:09:15;3.13;;;2.80;;
17141;SDS011;32805;53.556;9.944;2023-02-05T07:11:42;4.20;;;2.97;;
17141;SDS011;32805;53.556;9.944;2023-02-05T07:14:10;4.85;;;3.00;;
17141;SDS011;32805;53.556;9.944;2023-02-05T07:16:38;3.83;;;3.42;;
17141;SDS011;32805;53.556;9.944;2023-02-05T07:19:05;4.18;;;3.05;;
17141;SDS011;32805;53.556;9.944;2023-02-05T07:21:33;5.32;;;3.38;;
17141;SDS011;32805;53.556;9.944;2023-02-05T07:24:02;3.83;;;2.92;;
17141;SDS011;32805;53.556;9.944;2023-02-05T07:26:30;3.92;;;2.90;;
17141;SDS011;32805;53.556;9.944;2023-02-05T07:28:57;4.00;;;3.38;;
17141;SDS011;32805;53.556;9.944;2023-02-05T07:31:25;4.47;;;3.15;;
17141;SDS011;32805;53.556;9.944;2023-02-05T07:33:53;4.43;;;3.10;;
17141;SDS011;32805;53.556;9.944;2023-02-05T07:36:20;4.68;;;3.22;;
17141;SDS011;32805;53.556;9.944;2023-02-05T07:38:48;6.38;;;3.03;;
17141;SDS011;32805;53.556;9.944;2023-02-05T07:41:17;4.25;;;2.92;;
17141;SDS011;32805;53.556;9.944;2023-02-05T07:43:45;3.88;;;3.38;;
17141;SDS011;32805;53.556;9.944;2023-02-05T07:46:13;3.20;;;2.90;;
17141;SDS011;32805;53.556;9.944;2023-02-05T07:48:41;3.80;;;3.40;;
17141;SDS011;32805;53.556;9.944;2023-02-05T07:51:12;4.60;;;2.95;;
17141;SDS011;32805;53.556;9.944;2023-02-05T07:53:42;4.93;;;3.10;;
17141;SDS011;32805;53.556;9.944;2023-02-05T07:56:10;3.58;;;3.08;;
17141;SDS011;32805;53.556;9.944;2023-02-05T07:58:39;6.88;;;3.40;;
17141;SDS011;32805;53.556;9.944;2023-02-05T08:01:07;4.57;;;3.05;;
17141;SDS011;32805;53.556;9.944;2023-02-05T08:03:35;4.25;;;3.45;;
17141;SDS011;32805;53.556;9.944;2023-02-05T08:06:03;3.55;;;2.95;;
17141;SDS011;32805;53.556;9.944;2023-02-05T08:08:31;3.88;;;3.20;;
17141;SDS011;32805;53.556;9.944;2023-02-05T08:11:00;4.78;;;3.67;;
17141;SDS011;32805;53.556;9.944;2023-02-05T08:13:29;4.47;;;3.40;;
17141;SDS011;32805;53.556;9.944;2023-02-05T08:15:58;4.07;;;3.03;;
17141;SDS011;32805;53.556;9.944;2023-02-05T08:18:26;4.53;;;3.03;;
17141;SDS011;32805;53.556;9.944;2023-02-05T08:20:53;5.70;;;3.60;;
17141;SDS011;32805;53.556;9.944;2023-02-05T08:23:21;5.35;;;3.65;;
17141;SDS011;32805;53.556;9.944;2023-02-05T08:25:51;5.93;;;3.30;;
17141;SDS011;32805;53.556;9.944;2023-02-05T08:28:20;4.45;;;3.70;;
17141;SDS011;32805;53.556;9.944;2023-02-05T08:30:48;4.07;;;3.47;;
17141;SDS011;32805;53.556;9.944;2023-02-05T08:33:18;3.50;;;3.20;;
17141;SDS011;32805;53.556;9.944;2023-02-05T08:35:45;4.80;;;3.47;;
17141;SDS011;32805;53.556;9.944;2023-02-05T08:38:13;6.03;;;3.50;;
17141;SDS011;32805;53.556;9.944;2023-02-05T08:40:41;5.15;;;3.75;;
17141;SDS011;32805;53.556;9.944;2023-02-05T08:43:08;3.92;;;3.53;;
17141;SDS011;32805;53.556;9.944;2023-02-05T08:45:36;4.30;;;3.90;;
17141;SDS011;32805;53.556;9.944;2023-02-05T08:48:04;4.40;;;3.75;;
17141;SDS011;32805;53.556;9.944;2023-02-05T08:50:33;5.10;;;3.88;;
17141;SDS011;32805;53.556;9.944;2023-02-05T08:53:01;4.95;;;3.60;;
17141;SDS011;32805;53.556;9.944;2023-02-05T08:55:28;4.65;;;4.07;;
17141;SDS011;32805;53.556;9.944;2023-02-05T08:57:56;4.80;;;3.35;;
17141;SDS011;32805;53.556;9.944;2023-02-05T09:00:24;4.78;;;3.63;;
17141;SDS011;32805;53.556;9.944;2023-02-05T09:02:51;5.75;;;3.33;;
17141;SDS011;32805;53.556;9.944;2023-02-05T09:05:19;6.03;;;3.65;;
17141;SDS011;32805;53.556;9.944;2023-02-05T09:07:48;5.10;;;3.35;;
17141;SDS011;32805;53.556;9.944;2023-02-05T09:10:15;6.68;;;3.72;;
17141;SDS011;32805;53.556;9.944;2023-02-05T09:12:45;4.25;;;3.13;;
17141;SDS011;32805;53.556;9.944;2023-02-05T09:15:13;5.82;;;3.30;;
17141;SDS011;32805;53.556;9.944;2023-02-05T09:17:40;5.28;;;3.50;;
17141;SDS011;32805;53.556;9.944;2023-02-05T09:20:09;4.72;;;3.33;;
17141;SDS011;32805;53.556;9.944;2023-02-05T09:22:37;4.85;;;2.95;;
17141;SDS011;32805;53.556;9.944;2023-02-05T09:25:06;6.88;;;4.45;;
17141;SDS011;32805;53.556;9.944;2023-02-05T09:27:35;5.90;;;3.30;;
17141;SDS011;32805;53.556;9.944;2023-02-05T09:30:03;7.50;;;3.92;;
17141;SDS011;32805;53.556;9.944;2023-02-05T09:32:31;6.13;;;4.18;;
17141;SDS011;32805;53.556;9.944;2023-02-05T09:34:58;5.20;;;3.83;;
17141;SDS011;32805;53.556;9.944;2023-02-05T09:37:26;3.92;;;3.53;;
17141;SDS011;32805;53.556;9.944;2023-02-05T09:39:54;5.45;;;4.13;;
17141;SDS011;32805;53.556;9.944;2023-02-05T09:42:43;4.40;;;3.83;;
17141;SDS011;32805;53.556;9.944;2023-02-05T09:45:23;6.22;;;4.07;;
17141;SDS011;32805;53.556;9.944;2023-02-05T09:48:06;4.97;;;3.95;;
17141;SDS011;32805;53.556;9.944;2023-02-05T09:51:00;5.55;;;4.38;;
17141;SDS011;32805;53.556;9.944;2023-02-05T09:53:32;9.52;;;4.53;;
17141;SDS011;32805;53.556;9.944;2023-02-05T09:56:01;4.18;;;3.78;;
17141;SDS011;32805;53.556;9.944;2023-02-05T09:58:38;7.80;;;4.35;;
17141;SDS011;32805;53.556;9.944;2023-02-05T10:01:11;4.50;;;3.88;;
17141;SDS011;32805;53.556;9.944;2023-02-05T10:03:42;7.82;;;4.03;;
17141;SDS011;32805;53.556;9.944;2023-02-05T10:06:15;4.47;;;3.58;;
17141;SDS011;32805;53.556;9.944;2023-02-05T10:08:57;3.70;;;3.40;;
17141;SDS011;32805;53.556;9.944;2023-02-05T10:11:33;4.50;;;3.10;;
17141;SDS011;32805;53.556;9.944;2023-02-05T10:14:10;6.03;;;3.50;;
17141;SDS011;32805;53.556;9.944;2023-02-05T10:16:51;3.67;;;3.35;;
17141;SDS011;32805;53.556;9.944;2023-02-05T10:19:31;4.28;;;3.28;;
17141;SDS011;32805;53.556;9.944;2023-02-05T10:22:15;4.88;;;3.72;;
17141;SDS011;32805;53.556;9.944;2023-02-05T10:24:54;4.20;;;3.72;;
17141;SDS011;32805;53.556;9.944;2023-02-05T10:27:41;5.55;;;3.75;;
17141;SDS011;32805;53.556;9.944;2023-02-05T10:30:19;4.88;;;3.80;;
17141;SDS011;32805;53.556;9.944;2023-02-05T10:32:54;6.18;;;3.92;;
17141;SDS011;32805;53.556;9.944;2023-02-05T10:35:24;4.32;;;3.45;;
17141;SDS011;32805;53.556;9.944;2023-02-05T10:37:56;7.03;;;4.40;;
17141;SDS011;32805;53.556;9.944;2023-02-05T10:40:26;5.97;;;3.42;;
17141;SDS011;32805;53.556;9.944;2023-02-05T10:42:59;5.25;;;3.58;;
17141;SDS011;32805;53.556;9.944;2023-02-05T10:45:30;5.72;;;3.75;;
17141;SDS011;32805;53.556;9.944;2023-02-05T10:48:02;3.70;;;3.30;;
17141;SDS011;32805;53.556;9.944;2023-02-05T10:50:52;4.78;;;3.58;;
17141;SDS011;32805;53.556;9.944;2023-02-05T10:53:24;4.45;;;3.65;;
17141;SDS011;32805;53.556;9.944;2023-02-05T10:55:54;6.40;;;3.67;;
17141;SDS011;32805;53.556;9.944;2023-02-05T10:58:27;4.75;;;3.70;;
17141;SDS011;32805;53.556;9.944;2023-02-05T11:01:05;5.18;;;4.07;;
17141;SDS011;32805;53.556;9.944;2023-02-05T11:03:34;6.45;;;3.90;;
17141;SDS011;32805;53.556;9.944;2023-02-05T11:06:03;6.68;;;4.28;;
17141;SDS011;32805;53.556;9.944;2023-02-05T11:08:37;5.30;;;3.90;;
17141;SDS011;32805;53.556;9.944;2023-02-05T11:11:16;5.00;;;3.60;;
17141;SDS011;32805;53.556;9.944;2023-02-05T11:13:49;5.50;;;3.80;;
17141;SDS011;32805;53.556;9.944;2023-02-05T11:16:21;5.72;;;3.90;;
17141;SDS011;32805;53.556;9.944;2023-02-05T11:18:56;4.60;;;4.03;;
17141;SDS011;32805;53.556;9.944;2023-02-05T11:24:21;5.03;;;3.80;;
17141;SDS011;32805;53.556;9.944;2023-02-05T11:26:59;4.88;;;3.80;;
17141;SDS011;32805;53.556;9.944;2023-02-05T11:29:39;5.15;;;3.83;;
17141;SDS011;32805;53.556;9.944;2023-02-05T11:32:17;4.82;;;4.07;;
17141;SDS011;32805;53.556;9.944;2023-02-05T11:34:48;6.07;;;3.72;;
17141;SDS011;32805;53.556;9.944;2023-02-05T11:37:31;5.03;;;3.88;;
17141;SDS011;32805;53.556;9.944;2023-02-05T11:39:59;7.15;;;3.88;;
17141;SDS011;32805;53.556;9.944;2023-02-05T11:42:26;3.60;;;3.30;;
17141;SDS011;32805;53.556;9.944;2023-02-05T11:44:55;4.18;;;3.75;;
17141;SDS011;32805;53.556;9.944;2023-02-05T11:47:26;3.95;;;3.50;;
17141;SDS011;32805;53.556;9.944;2023-02-05T11:49:57;6.53;;;4.10;;
17141;SDS011;32805;53.556;9.944;2023-02-05T11:52:28;5.15;;;4.13;;
17141;SDS011;32805;53.556;9.944;2023-02-05T11:54:59;4.95;;;3.28;;
17141;SDS011;32805;53.556;9.944;2023-02-05T11:57:32;8.02;;;3.75;;
17141;SDS011;32805;53.556;9.944;2023-02-05T12:00:01;7.70;;;3.63;;
17141;SDS011;32805;53.556;9.944;2023-02-05T12:02:47;5.82;;;3.78;;
17141;SDS011;32805;53.556;9.944;2023-02-05T12:05:17;4.10;;;3.53;;
17141;SDS011;32805;53.556;9.944;2023-02-05T12:07:48;4.20;;;3.22;;
17141;SDS011;32805;53.556;9.944;2023-02-05T12:10:22;4.45;;;3.67;;
17141;SDS011;32805;53.556;9.944;2023-02-05T12:12:57;6.38;;;3.45;;
17141;SDS011;32805;53.556;9.944;2023-02-05T12:15:33;4.90;;;3.92;;
17141;SDS011;32805;53.556;9.944;2023-02-05T12:18:08;5.70;;;3.50;;
17141;SDS011;32805;53.556;9.944;2023-02-05T12:20:46;5.43;;;3.70;;
17141;SDS011;32805;53.556;9.944;2023-02-05T12:23:35;3.97;;;3.47;;
17141;SDS011;32805;53.556;9.944;2023-02-05T12:26:24;6.85;;;3.88;;
17141;SDS011;32805;53.556;9.944;2023-02-05T12:31:52;5.05;;;3.58;;
17141;SDS011;32805;53.556;9.944;2023-02-05T12:34:30;5.25;;;3.78;;
17141;SDS011;32805;53.556;9.944;2023-02-05T12:37:06;4.20;;;3.83;;
17141;SDS011;32805;53.556;9.944;2023-02-05T12:39:48;6.25;;;4.28;;
17141;SDS011;32805;53.556;9.944;2023-02-05T12:42:23;6.25;;;4.10;;
17141;SDS011;32805;53.556;9.944;2023-02-05T12:44:59;5.00;;;3.95;;
17141;SDS011;32805;53.556;9.944;2023-02-05T12:47:46;4.88;;;3.95;;
17141;SDS011;32805;53.556;9.944;2023-02-05T12:50:36;4.47;;;3.67;;
17141;SDS011;32805;53.556;9.944;2023-02-05T12:53:20;6.18;;;4.07;;
17141;SDS011;32805;53.556;9.944;2023-02-05T12:56:01;4.70;;;3.80;;
17141;SDS011;32805;53.556;9.944;2023-02-05T12:58:43;4.88;;;3.75;;
17141;SDS011;32805;53.556;9.944;2023-02-05T13:01:15;4.93;;;3.83;;
17141;SDS011;32805;53.556;9.944;2023-02-05T13:03:47;5.05;;;3.75;;
17141;SDS011;32805;53.556;9.944;2023-02-05T13:06:21;4.00;;;3.55;;
17141;SDS011;32805;53.556;9.944;2023-02-05T13:08:54;4.78;;;4.18;;
17141;SDS011;32805;53.556;9.944;2023-02-05T13:11:28;5.97;;;4.30;;
17141;SDS011;32805;53.556;9.944;2023-02-05T13:14:00;4.80;;;3.65;;
17141;SDS011;32805;53.556;9.944;2023-02-05T13:16:34;4.28;;;3.88;;
17141;SDS011;32805;53.556;9.944;2023-02-05T13:19:11;5.53;;;4.07;;
17141;SDS011;32805;53.556;9.944;2023-02-05T13:21:49;5.45;;;4.22;;
17141;SDS011;32805;53.556;9.944;2023-02-05T13:24:37;6.47;;;3.67;;
17141;SDS011;32805;53.556;9.944;2023-02-05T13:27:27;6.70;;;3.65;;
17141;SDS011;32805;53.556;9.944;2023-02-05T13:30:18;7.15;;;4.03;;
17141;SDS011;32805;53.556;9.944;2023-02-05T13:32:50;3.97;;;3.58;;
17141;SDS011;32805;53.556;9.944;2023-02-05T13:35:21;6.70;;;3.88;;
17141;SDS011;32805;53.556;9.944;2023-02-05T13:37:57;5.60;;;3.90;;
17141;SDS011;32805;53.556;9.944;2023-02-05T13:52:40;6.10;;;3.90;;
17141;SDS011;32805;53.556;9.944;2023-02-05T13:58:58;5.70;;;3.63;;
17141;SDS011;32805;53.556;9.944;2023-02-05T14:01:30;4.80;;;3.90;;
17141;SDS011;32805;53.556;9.944;2023-02-05T14:04:15;4.65;;;3.45;;
17141;SDS011;32805;53.556;9.944;2023-02-05T14:06:46;10.27;;;5.55;;
17141;SDS011;32805;53.556;9.944;2023-02-05T14:09:24;9.93;;;5.75;;
17141;SDS011;32805;53.556;9.944;2023-02-05T14:12:00;9.95;;;5.47;;
17141;SDS011;32805;53.556;9.944;2023-02-05T14:14:30;6.50;;;4.63;;
17141;SDS011;32805;53.556;9.944;2023-02-05T14:17:01;5.68;;;4.05;;
17141;SDS011;32805;53.556;9.944;2023-02-05T14:19:50;6.50;;;4.18;;
17141;SDS011;32805;53.556;9.944;2023-02-05T14:22:34;7.72;;;4.25;;
17141;SDS011;32805;53.556;9.944;2023-02-05T14:25:08;5.18;;;3.90;;
17141;SDS011;32805;53.556;9.944;2023-02-05T14:31:01;6.03;;;4.55;;
17141;SDS011;32805;53.556;9.944;2023-02-05T14:33:31;5.45;;;4.40;;
17141;SDS011;32805;53.556;9.944;2023-02-05T14:39:02;5.88;;;4.25;;
17141;SDS011;32805;53.556;9.944;2023-02-05T14:41:44;5.07;;;4.35;;
17141;SDS011;32805;53.556;9.944;2023-02-05T14:44:16;6.47;;;5.15;;
17141;SDS011;32805;53.556;9.944;2023-02-05T14:46:54;6.07;;;4.22;;
17141;SDS011;32805;53.556;9.944;2023-02-05T14:49:27;6.57;;;4.72;;
17141;SDS011;32805;53.556;9.944;2023-02-05T14:52:02;8.45;;;6.00;;
17141;SDS011;32805;53.556;9.944;2023-02-05T14:54:34;8.88;;;6.10;;
17141;SDS011;32805;53.556;9.944;2023-02-05T14:57:17;11.00;;;5.30;;
17141;SDS011;32805;53.556;9.944;2023-02-05T14:59:49;11.02;;;5.25;;
17141;SDS011;32805;53.556;9.944;2023-02-05T15:05:18;12.25;;;5.78;;
17141;SDS011;32805;53.556;9.944;2023-02-05T15:07:48;10.07;;;4.85;;
17141;SDS011;32805;53.556;9.944;2023-02-05T15:10:19;7.28;;;4.93;;
17141;SDS011;32805;53.556;9.944;2023-02-05T15:12:58;7.97;;;4.75;;
17141;SDS011;32805;53.556;9.944;2023-02-05T15:15:30;7.60;;;4.65;;
17141;SDS011;32805;53.556;9.944;2023-02-05T15:18:04;14.38;;;6.90;;
17141;SDS011;32805;53.556;9.944;2023-02-05T15:20:37;8.50;;;4.75;;
17141;SDS011;32805;53.556;9.944;2023-02-05T15:23:13;7.32;;;5.47;;
17141;SDS011;32805;53.556;9.944;2023-02-05T15:25:46;8.30;;;5.13;;
17141;SDS011;32805;53.556;9.944;2023-02-05T15:28:27;5.15;;;4.60;;
17141;SDS011;32805;53.556;9.944;2023-02-05T15:31:03;5.75;;;4.70;;
17141;SDS011;32805;53.556;9.944;2023-02-05T15:33:44;7.80;;;5.30;;
17141;SDS011;32805;53.556;9.944;2023-02-05T15:36:25;7.40;;;5.18;;
17141;SDS011;32805;53.556;9.944;2023-02-05T15:39:01;9.18;;;5.05;;
17141;SDS011;32805;53.556;9.944;2023-02-05T15:41:34;12.27;;;5.30;;
17141;SDS011;32805;53.556;9.944;2023-02-05T15:44:16;10.05;;;6.38;;
17141;SDS011;32805;53.556;9.944;2023-02-05T15:46:46;11.18;;;5.85;;
17141;SDS011;32805;53.556;9.944;2023-02-05T15:49:14;7.45;;;5.57;;
17141;SDS011;32805;53.556;9.944;2023-02-05T15:51:42;7.78;;;5.22;;
17141;SDS011;32805;53.556;9.944;2023-02-05T15:54:15;8.85;;;5.50;;
17141;SDS011;32805;53.556;9.944;2023-02-05T15:56:47;8.73;;;5.95;;